Time,TemperatureF,DewpointF,PressureIn,WindDirection,WindDirectionDegrees,WindSpeedMPH,WindSpeedGustMPH,Humidity,HourlyPrecipIn,Conditions,Clouds,dailyrainin,SoftwareType,DateUTC
2013-03-12 04:40:00,41.2,40.9,30.00,ENE,67,2.7,-999.0,99,-99.99,,,0.00,Acu-Link.com,2013-03-12 08:40:00,
2013-03-12 06:30:00,41.2,40.9,30.00,NE,45,3.2,-999.0,99,-99.99,,,0.00,Acu-Link.com,2013-03-12 10:30:00,
2013-03-12 06:53:00,41.2,40.9,29.98,NE,45,1.1,-999.0,99,-99.99,,,0.00,Acu-Link.com,2013-03-12 10:53:00,
2013-03-12 07:10:00,40.6,40.3,29.98,ESE,112,3.2,-999.0,99,-99.99,,,0.00,Acu-Link.com,2013-03-12 11:10:00,
2013-03-12 07:25:00,41.0,40.7,29.98,ENE,67,1.7,-999.0,99,-99.99,,,0.00,Acu-Link.com,2013-03-12 11:25:00,
2013-03-12 07:46:00,41.0,40.7,29.97,ESE,112,2.7,-999.0,99,-99.99,,,0.00,Acu-Link.com,2013-03-12 11:46:00,
2013-03-12 17:35:00,48.4,48.1,29.75,SSE,157,6.3,-999.0,99,-99.99,,,0.00,Acu-Link.com,2013-03-12 21:35:00,
2013-03-12 17:52:00,48.2,47.9,29.74,SE,135,4.7,-999.0,99,-99.99,,,0.00,Acu-Link.com,2013-03-12 21:52:00,
2013-03-12 18:22:00,48.7,48.4,29.72,South,180,6.8,-999.0,99,-99.99,,,0.00,Acu-Link.com,2013-03-12 22:22:00,
2013-03-12 18:38:00,46.6,46.3,29.72,NNE,22,4.7,-999.0,99,-99.99,,,0.00,Acu-Link.com,2013-03-12 22:38:00,
2013-03-12 19:09:00,46.2,45.9,29.70,SE,135,2.7,-999.0,99,-99.99,,,0.01,Acu-Link.com,2013-03-12 23:09:00,
2013-03-12 19:24:00,46.0,45.7,29.69,South,180,3.2,-999.0,99,-99.99,,,0.04,Acu-Link.com,2013-03-12 23:24:00,
2013-03-12 19:43:00,48.7,48.4,29.69,SSE,157,2.7,-999.0,99,-99.99,,,0.06,Acu-Link.com,2013-03-12 23:43:00,
2013-03-12 20:02:00,48.7,48.4,29.67,ESE,112,9.4,-999.0,99,-99.99,,,0.08,Acu-Link.com,2013-03-13 00:02:00,
2013-03-12 20:19:00,48.7,48.4,29.66,ESE,112,5.3,-999.0,99,-99.99,,,0.13,Acu-Link.com,2013-03-13 00:19:00,
2013-03-12 20:34:00,48.4,48.1,29.64,SSE,157,7.8,-999.0,99,-99.99,,,0.15,Acu-Link.com,2013-03-13 00:34:00,
2013-03-12 21:10:00,48.4,48.1,29.66,ESE,112,4.2,-999.0,99,-99.99,,,0.17,Acu-Link.com,2013-03-13 01:10:00,
2013-03-12 21:27:00,49.1,48.8,29.66,SE,135,3.2,-999.0,99,-99.99,,,0.20,Acu-Link.com,2013-03-13 01:27:00,
2013-03-12 21:53:00,50.0,49.7,29.65,SSE,157,2.2,-999.0,99,-99.99,,,0.21,Acu-Link.com,2013-03-13 01:53:00,
2013-03-12 22:09:00,48.9,48.6,29.65,SSW,202,3.7,-999.0,99,-99.99,,,0.21,Acu-Link.com,2013-03-13 02:09:00,
2013-03-12 22:24:00,49.6,49.3,29.64,WSW,247,5.3,-999.0,99,-99.99,,,0.21,Acu-Link.com,2013-03-13 02:24:00,
2013-03-12 22:40:00,50.9,50.6,29.64,WNW,292,6.8,-999.0,99,-99.99,,,0.21,Acu-Link.com,2013-03-13 02:40:00,
2013-03-12 22:55:00,51.1,50.8,29.64,WSW,247,9.4,-999.0,99,-99.99,,,0.21,Acu-Link.com,2013-03-13 02:55:00,
2013-03-12 23:12:00,51.1,50.8,29.64,SSW,202,7.3,-999.0,99,-99.99,,,0.21,Acu-Link.com,2013-03-13 03:12:00,